Time;durP1;ratioP1;P1;durP2;ratioP2;P2;SDS_P1;SDS_P2;PMS_P1;PMS_P2;Temp;Humidity;BMP_temperature;BMP_pressure;BME280_temperature;BME280_humidity;BME280_pressure;Samples;Min_cycle;Max_cycle;Signal;HPM_P1;HPM_P2
2024/03/29 00:00:11;;;;;;;7.60;4.55;;;;;;;6.66;100.00;97676.38;4983718;28;20057;-69
2024/03/29 00:02:37;;;;;;;7.15;4.35;;;;;;;6.63;100.00;97676.66;4984143;28;20119;-69
2024/03/29 00:05:03;;;;;;;7.03;3.80;;;;;;;6.71;100.00;97681.09;5000563;28;20659;-68
2024/03/29 00:07:33;;;;;;;5.80;3.33;;;;;;;6.58;100.00;97652.22;5025038;28;20853;-70
2024/03/29 00:10:04;;;;;;;5.90;3.38;;;;;;;6.81;100.00;97683.63;4993029;28;20065;-69
2024/03/29 00:12:29;;;;;;;5.47;3.28;;;;;;;6.86;100.00;97691.78;4988640;28;21406;-71
2024/03/29 00:14:59;;;;;;;6.68;3.65;;;;;;;6.89;100.00;97694.88;5014041;28;20029;-68
2024/03/29 00:17:25;;;;;;;5.97;3.53;;;;;;;6.89;100.00;97705.22;4993636;28;20041;-69
2024/03/29 00:19:50;;;;;;;5.78;3.05;;;;;;;6.92;100.00;97710.13;5014183;28;20029;-69
2024/03/29 00:22:18;;;;;;;6.18;3.42;;;;;;;6.90;100.00;97706.88;4994233;28;20081;-71
2024/03/29 00:24:43;;;;;;;6.13;3.20;;;;;;;6.89;100.00;97720.72;4994672;28;20112;-69
2024/03/29 00:27:11;;;;;;;5.60;3.08;;;;;;;6.92;100.00;97717.06;4991907;28;20064;-68
2024/03/29 00:29:37;;;;;;;7.10;3.20;;;;;;;6.91;100.00;97713.66;5014642;28;20030;-71
2024/03/29 00:32:07;;;;;;;5.60;3.30;;;;;;;6.90;100.00;97726.72;5010515;28;20021;-70
2024/03/29 00:34:35;;;;;;;7.82;3.55;;;;;;;6.80;100.00;97716.41;5006769;28;20034;-70
2024/03/29 00:37:03;;;;;;;5.68;3.20;;;;;;;6.54;100.00;97687.84;4982187;28;20025;-68
2024/03/29 00:39:31;;;;;;;6.25;3.30;;;;;;;6.89;100.00;97735.44;4994814;28;20580;-69
2024/03/29 00:41:57;;;;;;;5.88;3.03;;;;;;;6.80;100.00;97737.09;4981643;28;20026;-70
2024/03/29 00:44:22;;;;;;;5.65;3.28;;;;;;;6.80;100.00;97747.44;5012120;28;20029;-69
2024/03/29 00:46:47;;;;;;;5.97;3.40;;;;;;;6.70;100.00;97744.88;4978892;28;20031;-68
2024/03/29 00:49:15;;;;;;;6.25;3.40;;;;;;;6.75;100.00;97754.78;4993301;28;21359;-68
2024/03/29 00:51:41;;;;;;;6.18;3.40;;;;;;;6.63;100.00;97728.31;5002550;28;20036;-68
2024/03/29 00:54:06;;;;;;;5.60;3.13;;;;;;;6.54;100.00;97718.84;4994398;28;20029;-69
2024/03/29 00:56:34;;;;;;;5.97;3.38;;;;;;;6.34;100.00;97700.00;5016292;28;20147;-68
2024/03/29 00:58:59;;;;;;;6.10;3.25;;;;;;;6.79;100.00;97776.81;4995741;28;20060;-71
2024/03/29 01:01:24;;;;;;;6.00;3.67;;;;;;;6.76;100.00;97771.13;5000911;28;20534;-71
2024/03/29 01:03:50;;;;;;;5.50;3.08;;;;;;;6.81;100.00;97774.06;4993897;28;20036;-68
2024/03/29 01:06:15;;;;;;;6.70;3.80;;;;;;;6.78;100.00;97759.69;4994604;28;20033;-70
2024/03/29 01:08:41;;;;;;;6.35;3.95;;;;;;;6.76;100.00;97753.84;5010752;28;20053;-69
2024/03/29 01:11:08;;;;;;;7.50;3.70;;;;;;;6.74;100.00;97740.25;4995465;28;20036;-68
2024/03/29 01:13:34;;;;;;;5.82;3.28;;;;;;;6.75;100.00;97726.38;4997382;28;20778;-68
2024/03/29 01:15:59;;;;;;;7.60;4.15;;;;;;;6.64;100.00;97735.09;4978635;28;20030;-68
2024/03/29 01:18:27;;;;;;;6.82;3.97;;;;;;;6.32;100.00;97696.75;4996086;28;20051;-70
2024/03/29 01:20:52;;;;;;;7.03;4.10;;;;;;;6.64;100.00;97753.19;5009726;28;20022;-69
2024/03/29 01:23:17;;;;;;;7.18;4.20;;;;;;;6.62;100.00;97760.25;4996353;28;20084;-68
2024/03/29 01:25:43;;;;;;;7.20;3.78;;;;;;;6.64;100.00;97771.28;5011307;28;20239;-70
2024/03/29 01:28:11;;;;;;;6.18;3.75;;;;;;;6.68;100.00;97776.97;4988371;28;20038;-71
2024/03/29 01:30:38;;;;;;;5.85;3.10;;;;;;;6.50;100.00;97720.88;4995595;28;20783;-69
2024/03/29 01:33:04;;;;;;;6.05;3.35;;;;;;;6.78;100.00;97779.53;4993283;28;20026;-68
2024/03/29 01:35:31;;;;;;;5.45;3.13;;;;;;;6.62;100.00;97738.78;4995099;28;20724;-68
2024/03/29 01:37:59;;;;;;;5.70;2.90;;;;;;;6.87;100.00;97787.25;5013293;28;20057;-69
2024/03/29 01:40:27;;;;;;;7.65;3.20;;;;;;;6.90;100.00;97784.41;5009600;28;20196;-71
2024/03/29 01:42:53;;;;;;;4.53;2.13;;;;;;;6.63;100.00;97750.78;4974346;28;20117;-69
2024/03/29 01:45:21;;;;;;;5.30;2.53;;;;;;;6.72;100.00;97763.66;5010700;28;20033;-68
2024/03/29 01:47:46;;;;;;;5.28;2.50;;;;;;;6.89;100.00;97771.63;5006967;28;20723;-68
2024/03/29 01:50:12;;;;;;;6.38;2.95;;;;;;;6.93;100.00;97773.75;5007611;28;20041;-68
2024/03/29 01:52:41;;;;;;;5.82;2.70;;;;;;;6.63;100.00;97725.75;5004946;28;20041;-69
2024/03/29 01:55:09;;;;;;;5.97;2.80;;;;;;;6.89;100.00;97775.00;5004008;28;20041;-69
2024/03/29 01:57:34;;;;;;;5.55;2.67;;;;;;;6.70;100.00;97731.97;5020982;28;20091;-69
2024/03/29 02:00:00;;;;;;;5.55;2.78;;;;;;;6.92;100.00;97771.34;4994410;28;20034;-68
2024/03/29 02:02:28;;;;;;;6.05;3.15;;;;;;;6.90;100.00;97779.22;4977026;28;20053;-71
2024/03/29 02:04:55;;;;;;;6.00;3.25;;;;;;;6.90;100.00;97768.88;4994205;28;20712;-69
2024/03/29 02:07:21;;;;;;;6.65;2.95;;;;;;;6.90;100.00;97763.72;4996608;28;20040;-70
2024/03/29 02:09:46;;;;;;;4.80;2.97;;;;;;;6.78;100.00;97753.72;4987842;28;20030;-68
2024/03/29 02:12:12;;;;;;;5.47;3.03;;;;;;;6.79;100.00;97766.50;4993267;28;20045;-69
2024/03/29 02:14:40;;;;;;;7.13;3.15;;;;;;;6.83;100.00;97785.91;5009363;28;20696;-69
2024/03/29 02:17:06;;;;;;;5.93;2.92;;;;;;;6.85;100.00;97788.38;4991304;28;20823;-70
2024/03/29 02:19:31;;;;;;;6.25;3.03;;;;;;;6.87;100.00;97776.09;4994138;28;20041;-71
2024/03/29 02:21:59;;;;;;;6.45;2.95;;;;;;;6.66;100.00;97735.81;4992197;28;20041;-70
2024/03/29 02:24:27;;;;;;;5.10;2.67;;;;;;;6.87;100.00;97774.34;4992878;28;20022;-70
2024/03/29 02:26:54;;;;;;;5.57;3.00;;;;;;;6.81;100.00;97767.16;4995413;28;20088;-70
2024/03/29 02:29:20;;;;;;;5.85;3.15;;;;;;;6.81;100.00;97761.16;5011740;28;20064;-70
2024/03/29 02:31:48;;;;;;;5.32;2.70;;;;;;;6.92;100.00;97756.63;4994071;28;20112;-71
2024/03/29 02:34:13;;;;;;;5.45;2.55;;;;;;;6.92;100.00;97772.16;4996795;28;20033;-69
2024/03/29 02:36:38;;;;;;;7.13;3.10;;;;;;;6.89;100.00;97769.84;4997899;28;20030;-69
2024/03/29 02:39:06;;;;;;;5.85;2.50;;;;;;;6.84;100.00;97779.78;5011449;28;20022;-69
2024/03/29 02:41:34;;;;;;;5.50;2.80;;;;;;;6.83;100.00;97774.78;4996219;28;20030;-71
2024/03/29 02:43:59;;;;;;;5.20;2.60;;;;;;;6.91;100.00;97791.19;4997501;28;20059;-69
2024/03/29 02:46:25;;;;;;;5.80;2.63;;;;;;;6.94;100.00;97795.25;4994264;28;20041;-69
2024/03/29 02:48:53;;;;;;;6.97;2.38;;;;;;;6.95;100.00;97786.53;5016306;28;20072;-69
2024/03/29 02:51:20;;;;;;;5.32;2.42;;;;;;;6.84;100.00;97781.56;4980182;28;20034;-69
2024/03/29 02:53:46;;;;;;;5.25;2.70;;;;;;;6.89;100.00;97798.25;5000467;28;20029;-70
2024/03/29 02:56:18;;;;;;;4.65;2.33;;;;;;;6.90;100.00;97789.56;4999857;28;20026;-69
2024/03/29 02:58:44;;;;;;;5.15;2.42;;;;;;;6.95;100.00;97796.88;5025610;28;20201;-69
2024/03/29 03:01:09;;;;;;;4.93;2.80;;;;;;;6.94;100.00;97808.19;4993282;28;20514;-69
2024/03/29 03:03:38;;;;;;;6.28;2.38;;;;;;;6.95;100.00;97816.75;4993479;28;20037;-71
2024/03/29 03:06:04;;;;;;;5.57;3.00;;;;;;;6.93;100.00;97816.88;4983301;28;20034;-68
2024/03/29 03:11:17;;;;;;;5.22;2.53;;;;;;;7.00;100.00;97809.38;5012798;28;20095;-68
2024/03/29 03:13:42;;;;;;;5.10;2.40;;;;;;;6.98;100.00;97817.28;4999019;28;20026;-70
2024/03/29 03:16:10;;;;;;;4.45;2.58;;;;;;;7.03;100.00;97817.69;4996357;28;20034;-68
2024/03/29 03:18:35;;;;;;;5.18;2.42;;;;;;;6.98;100.00;97811.31;4993079;28;20038;-69
2024/03/29 03:21:01;;;;;;;4.53;2.30;;;;;;;7.02;100.00;97826.38;5017305;28;20029;-68
2024/03/29 03:23:27;;;;;;;5.40;2.60;;;;;;;7.06;100.00;97830.34;4991254;28;20031;-68
2024/03/29 03:26:03;;;;;;;6.32;2.72;;;;;;;7.05;100.00;97833.84;4993446;28;20092;-71
2024/03/29 03:28:31;;;;;;;4.60;2.10;;;;;;;7.04;100.00;97827.03;5031046;28;20022;-68
2024/03/29 03:30:57;;;;;;;4.63;2.30;;;;;;;7.05;100.00;97820.94;4998026;28;20520;-70
2024/03/29 03:33:23;;;;;;;4.85;2.50;;;;;;;7.04;100.00;97818.47;5024521;28;20137;-69
2024/03/29 03:35:49;;;;;;;5.03;2.53;;;;;;;7.13;100.00;97835.72;5002963;28;20061;-68
2024/03/29 03:38:15;;;;;;;5.00;2.40;;;;;;;7.09;100.00;97827.44;4998121;28;20026;-69
2024/03/29 03:40:41;;;;;;;4.47;2.17;;;;;;;7.02;100.00;97816.03;4999644;28;20026;-69
2024/03/29 03:43:09;;;;;;;4.90;2.45;;;;;;;7.09;100.00;97830.03;4996620;28;20460;-69
2024/03/29 03:45:39;;;;;;;5.97;2.40;;;;;;;7.07;100.00;97820.78;4998637;28;20065;-69
2024/03/29 03:48:05;;;;;;;5.72;2.45;;;;;;;7.16;100.00;97832.06;5017414;28;20031;-68
2024/03/29 03:50:33;;;;;;;5.10;2.45;;;;;;;6.97;100.00;97799.31;4981486;28;20030;-68
2024/03/29 03:53:01;;;;;;;4.72;2.13;;;;;;;7.15;100.00;97823.47;4977447;28;20103;-68
2024/03/29 03:55:27;;;;;;;4.32;2.00;;;;;;;7.23;100.00;97839.09;4978579;28;20041;-70
2024/03/29 03:57:53;;;;;;;5.80;2.30;;;;;;;6.98;100.00;97790.63;5012895;28;20030;-70
2024/03/29 04:00:23;;;;;;;5.25;2.10;;;;;;;7.18;100.00;97833.53;4984009;28;20145;-70
2024/03/29 04:02:49;;;;;;;5.40;2.10;;;;;;;7.16;100.00;97837.22;5007296;28;20104;-68
2024/03/29 04:05:17;;;;;;;4.75;2.10;;;;;;;7.07;100.00;97824.19;4981853;28;20108;-69
2024/03/29 04:07:42;;;;;;;4.68;2.10;;;;;;;7.16;100.00;97827.69;4990578;28;20109;-70
2024/03/29 04:10:08;;;;;;;4.60;2.00;;;;;;;7.18;100.00;97841.28;5010295;28;20030;-69
2024/03/29 04:12:35;;;;;;;4.60;1.90;;;;;;;7.17;100.00;97831.91;5013413;28;20072;-69
2024/03/29 04:15:06;;;;;;;4.72;2.15;;;;;;;7.11;100.00;97833.28;4993799;28;20095;-70
2024/03/29 04:17:34;;;;;;;4.43;2.05;;;;;;;7.07;100.00;97844.88;5009312;28;20065;-68
2024/03/29 04:19:59;;;;;;;4.38;2.08;;;;;;;7.15;100.00;97853.69;4994383;28;20120;-70
2024/03/29 04:22:27;;;;;;;4.30;2.13;;;;;;;7.22;100.00;97854.75;5010141;28;20546;-68
2024/03/29 04:24:55;;;;;;;4.80;2.40;;;;;;;7.11;100.00;97856.53;5015145;28;20032;-69
2024/03/29 04:27:20;;;;;;;4.57;2.10;;;;;;;6.97;100.00;97820.00;4992856;28;20033;-70
2024/03/29 04:29:46;;;;;;;4.60;2.42;;;;;;;6.92;100.00;97826.41;5008280;28;20026;-69
2024/03/29 04:32:11;;;;;;;5.40;2.10;;;;;;;7.16;100.00;97853.56;4983358;28;20041;-69
2024/03/29 04:34:36;;;;;;;4.90;2.35;;;;;;;7.16;100.00;97865.66;5011685;28;21126;-70
2024/03/29 04:37:02;;;;;;;5.28;2.45;;;;;;;7.06;100.00;97865.69;4992160;28;20022;-70
2024/03/29 04:39:28;;;;;;;4.93;2.15;;;;;;;7.03;100.00;97850.47;4983822;28;20025;-68
2024/03/29 04:41:55;;;;;;;5.03;2.40;;;;;;;7.04;100.00;97863.22;4990640;28;20057;-69
2024/03/29 04:44:25;;;;;;;5.45;2.22;;;;;;;7.04;100.00;97844.34;4999510;28;20033;-69
2024/03/29 04:46:51;;;;;;;;;;;;;;;7.07;100.00;97856.97;4979325;28;20033;-68
2024/03/29 04:49:22;;;;;;;4.65;2.00;;;;;;;7.06;100.00;97866.53;5010114;28;19918;-68
2024/03/29 04:51:49;;;;;;;6.13;2.30;;;;;;;7.06;100.00;97861.34;4980046;28;20032;-69
2024/03/29 04:54:15;;;;;;;6.88;2.40;;;;;;;7.00;100.00;97867.06;4990384;28;20041;-68
2024/03/29 04:56:46;;;;;;;4.50;2.13;;;;;;;7.01;100.00;97870.44;5018298;28;20034;-70
2024/03/29 04:59:16;;;;;;;5.15;2.42;;;;;;;6.98;100.00;97863.81;4998773;28;20456;-69
2024/03/29 05:01:44;;;;;;;8.13;2.40;;;;;;;6.94;100.00;97872.81;4995768;28;20061;-68
2024/03/29 05:04:12;;;;;;;4.70;2.33;;;;;;;6.86;100.00;97875.25;5033501;28;20516;-69
2024/03/29 05:06:38;;;;;;;4.77;2.30;;;;;;;6.87;100.00;97890.63;4996243;28;20091;-69
2024/03/29 05:09:03;;;;;;;4.32;2.08;;;;;;;6.88;100.00;97891.44;5009303;28;20042;-68
2024/03/29 05:11:29;;;;;;;5.45;2.47;;;;;;;6.69;100.00;97864.66;4999747;28;20095;-68
2024/03/29 05:13:54;;;;;;;5.25;2.30;;;;;;;7.02;100.00;97906.50;4994178;28;20149;-69
2024/03/29 05:16:21;;;;;;;4.57;2.05;;;;;;;7.01;100.00;97898.88;4989052;28;20034;-69
2024/03/29 05:18:47;;;;;;;5.28;2.25;;;;;;;7.00;100.00;97908.41;4979320;28;20037;-69
2024/03/29 05:21:13;;;;;;;6.88;2.55;;;;;;;6.90;100.00;97890.34;5007321;28;20022;-70
2024/03/29 05:23:38;;;;;;;7.40;2.67;;;;;;;6.68;100.00;97854.47;5009434;28;20567;-68
2024/03/29 05:26:03;;;;;;;4.25;2.10;;;;;;;6.62;100.00;97855.03;4994412;28;20029;-68
2024/03/29 05:28:29;;;;;;;6.15;2.10;;;;;;;6.77;100.00;97887.22;5011283;28;20116;-67
2024/03/29 05:30:55;;;;;;;5.35;2.50;;;;;;;6.76;100.00;97895.94;4992212;28;20374;-68
2024/03/29 05:33:20;;;;;;;5.68;2.30;;;;;;;6.49;100.00;97861.28;4997215;28;20117;-68
2024/03/29 05:35:45;;;;;;;4.75;2.45;;;;;;;6.37;100.00;97840.91;4995058;28;20075;-70
2024/03/29 05:38:11;;;;;;;4.70;2.30;;;;;;;6.71;100.00;97893.75;4996530;28;20041;-69
2024/03/29 05:40:37;;;;;;;5.18;2.70;;;;;;;6.70;100.00;97894.75;5004676;28;20036;-68
2024/03/29 05:43:03;;;;;;;4.85;2.40;;;;;;;6.72;100.00;97895.41;4992882;28;20548;-68
2024/03/29 05:45:32;;;;;;;5.90;2.70;;;;;;;6.46;100.00;97853.00;4993540;28;20029;-67
2024/03/29 05:47:58;;;;;;;5.90;2.80;;;;;;;6.48;100.00;97862.25;4990120;28;20133;-67
2024/03/29 05:50:25;;;;;;;5.60;2.53;;;;;;;6.72;100.00;97898.00;4993227;28;20040;-67
2024/03/29 05:52:54;;;;;;;5.10;2.72;;;;;;;6.66;100.00;97884.81;4994020;28;20038;-67
2024/03/29 05:55:22;;;;;;;5.20;2.70;;;;;;;6.63;100.00;97878.16;4994927;28;20199;-66
2024/03/29 05:57:49;;;;;;;6.90;2.65;;;;;;;6.58;100.00;97871.78;5009685;28;20121;-66
2024/03/29 06:00:15;;;;;;;5.10;2.90;;;;;;;6.66;100.00;97883.06;4989964;28;20018;-66
2024/03/29 06:02:42;;;;;;;7.68;3.35;;;;;;;6.51;100.00;97872.31;5009593;28;20046;-65
2024/03/29 06:05:08;;;;;;;7.50;3.00;;;;;;;6.52;100.00;97876.53;4976796;28;20034;-65
2024/03/29 06:07:36;;;;;;;7.53;3.30;;;;;;;6.50;100.00;97887.97;4978023;28;20040;-64
2024/03/29 06:10:07;;;;;;;5.30;3.20;;;;;;;6.45;100.00;97882.38;4992700;28;20081;-64
2024/03/29 06:12:33;;;;;;;6.70;3.05;;;;;;;6.43;100.00;97890.25;4976623;28;20033;-63
2024/03/29 06:17:43;;;;;;;6.20;3.58;;;;;;;6.50;100.00;97911.19;5009281;28;20052;-64
2024/03/29 06:20:09;;;;;;;6.53;3.30;;;;;;;6.47;100.00;97906.31;4994870;28;20033;-62
2024/03/29 06:22:36;;;;;;;4.20;2.20;;;;;;;6.53;100.00;97908.31;4977326;28;20040;-66
2024/03/29 06:25:05;;;;;;;5.53;3.33;;;;;;;6.29;100.00;97868.22;4999759;28;20442;-63
2024/03/29 06:27:32;;;;;;;6.07;3.10;;;;;;;6.24;100.00;97869.59;5009113;28;20054;-63
2024/03/29 06:29:58;;;;;;;6.88;3.10;;;;;;;6.50;100.00;97914.59;4994057;28;20031;-64
2024/03/29 06:32:23;;;;;;;4.68;2.10;;;;;;;6.43;100.00;97902.38;5011609;28;20024;-63
2024/03/29 06:34:51;;;;;;;5.05;2.65;;;;;;;6.39;100.00;97888.91;4996363;28;20378;-63
2024/03/29 06:37:21;;;;;;;6.75;2.13;;;;;;;6.57;100.00;97907.13;4991794;28;20865;-61
2024/03/29 06:39:52;;;;;;;6.30;2.65;;;;;;;6.56;100.00;97913.22;4992134;28;20030;-63
2024/03/29 06:42:20;;;;;;;6.97;2.72;;;;;;;6.50;100.00;97900.88;4995522;28;20018;-64
2024/03/29 06:44:45;;;;;;;4.65;2.28;;;;;;;6.62;100.00;97914.44;5001282;28;20028;-62
2024/03/29 06:47:11;;;;;;;5.15;2.38;;;;;;;6.60;100.00;97918.94;4998409;28;20827;-63
2024/03/29 06:49:36;;;;;;;5.15;2.47;;;;;;;6.62;100.00;97920.41;5002897;28;20597;-66
2024/03/29 06:52:02;;;;;;;4.65;2.58;;;;;;;6.68;100.00;97927.66;4992142;28;20057;-62
2024/03/29 06:54:28;;;;;;;4.90;2.38;;;;;;;6.70;100.00;97932.69;5015045;28;20109;-63
2024/03/29 06:56:57;;;;;;;7.13;3.10;;;;;;;6.67;100.00;97920.84;4993593;28;20452;-62
2024/03/29 06:59:25;;;;;;;6.15;2.63;;;;;;;6.67;100.00;97928.59;5029001;28;20026;-63
2024/03/29 07:01:51;;;;;;;6.13;2.40;;;;;;;6.68;100.00;97926.81;4975495;28;20046;-64
2024/03/29 07:04:21;;;;;;;5.25;2.17;;;;;;;6.60;100.00;97919.75;5007076;28;20029;-67
2024/03/29 07:06:52;;;;;;;5.88;2.38;;;;;;;6.67;100.00;97926.00;4994452;28;20558;-67
2024/03/29 07:09:24;;;;;;;5.32;2.55;;;;;;;6.65;100.00;97921.94;4990022;28;20029;-64
2024/03/29 07:11:51;;;;;;;4.75;2.05;;;;;;;6.59;100.00;97902.63;4990124;28;20474;-65
2024/03/29 07:14:20;;;;;;;5.05;2.00;;;;;;;6.71;100.00;97917.03;4987995;28;20014;-66
2024/03/29 07:16:46;;;;;;;3.60;1.60;;;;;;;6.46;100.00;97871.91;4999302;28;20029;-67
2024/03/29 07:19:18;;;;;;;4.13;1.70;;;;;;;6.69;100.00;97910.38;5009524;28;20036;-65
2024/03/29 07:21:47;;;;;;;3.85;1.60;;;;;;;6.69;100.00;97918.13;5011581;28;20034;-63
2024/03/29 07:24:15;;;;;;;4.82;1.42;;;;;;;6.82;100.00;97934.16;4996464;28;20040;-65
2024/03/29 07:26:42;;;;;;;3.17;1.38;;;;;;;6.85;100.00;97926.13;5013388;28;20029;-65
2024/03/29 07:29:08;;;;;;;4.03;1.30;;;;;;;6.86;100.00;97943.28;5012954;28;20026;-62
2024/03/29 07:31:33;;;;;;;3.33;1.35;;;;;;;6.80;100.00;97946.41;5002399;28;20485;-66
2024/03/29 07:33:59;;;;;;;4.13;1.23;;;;;;;6.98;100.00;97949.09;4999063;28;20080;-64
2024/03/29 07:36:31;;;;;;;4.75;1.50;;;;;;;7.05;100.00;97954.53;4989097;28;20152;-66
2024/03/29 07:39:00;;;;;;;4.05;1.50;;;;;;;7.11;100.00;97977.25;4993802;28;20028;-66
2024/03/29 07:41:25;;;;;;;3.15;1.30;;;;;;;6.93;100.00;97946.13;4999042;28;20279;-64
2024/03/29 07:44:04;;;;;;;3.95;1.25;;;;;;;7.20;100.00;97991.13;4997189;28;20490;-62
2024/03/29 07:46:32;;;;;;;4.80;1.48;;;;;;;7.24;100.00;98000.22;5003378;28;20033;-66
2024/03/29 07:48:58;;;;;;;6.55;2.03;;;;;;;7.24;100.00;98001.03;4994656;28;20432;-63
2024/03/29 07:51:23;;;;;;;5.97;2.17;;;;;;;7.27;100.00;98002.53;5014452;28;20554;-63
2024/03/29 07:53:49;;;;;;;4.93;1.83;;;;;;;7.28;100.00;97984.31;4975040;28;20430;-62
2024/03/29 07:56:15;;;;;;;4.15;2.13;;;;;;;7.39;100.00;97995.44;4978563;28;20484;-63
2024/03/29 07:58:40;;;;;;;4.15;1.80;;;;;;;7.40;100.00;97994.50;5010087;28;20109;-64
2024/03/29 08:01:06;;;;;;;5.05;1.80;;;;;;;7.40;100.00;97991.91;4986960;28;21448;-63
2024/03/29 08:03:35;;;;;;;4.20;1.80;;;;;;;7.44;100.00;98004.41;4992214;28;20052;-64
2024/03/29 08:06:04;;;;;;;5.07;1.60;;;;;;;7.41;100.00;98011.63;5012183;28;20101;-65
2024/03/29 08:08:33;;;;;;;3.50;1.50;;;;;;;7.32;100.00;97997.78;5004513;28;20692;-64
2024/03/29 08:10:59;;;;;;;5.22;1.48;;;;;;;7.16;100.00;98015.63;4995924;28;20436;-67
2024/03/29 08:13:25;;;;;;;4.55;1.40;;;;;;;7.06;100.00;97989.75;4998737;28;20157;-65
2024/03/29 08:16:01;;;;;;;4.25;1.27;;;;;;;7.05;100.00;98027.72;4989915;28;20030;-64
2024/03/29 08:18:27;;;;;;;3.28;1.20;;;;;;;7.04;100.00;98028.69;4996334;28;20056;-65
2024/03/29 08:20:55;;;;;;;4.03;1.20;;;;;;;7.08;100.00;98022.31;5004757;28;20037;-63
2024/03/29 08:23:23;;;;;;;3.78;1.40;;;;;;;7.00;100.00;98026.50;4979571;28;20083;-63
2024/03/29 08:25:49;;;;;;;3.95;1.90;;;;;;;7.03;100.00;98028.84;5004475;28;20030;-65
2024/03/29 08:28:15;;;;;;;3.80;1.50;;;;;;;7.04;100.00;98020.91;5027683;28;20026;-66
2024/03/29 08:30:43;;;;;;;5.60;2.58;;;;;;;6.95;100.00;98021.75;5032921;28;20034;-64
2024/03/29 08:33:08;;;;;;;6.90;2.65;;;;;;;6.88;100.00;98012.91;5015327;28;20041;-63
2024/03/29 08:35:34;;;;;;;7.53;3.15;;;;;;;6.99;100.00;98035.22;4996432;28;20029;-68
2024/03/29 08:38:00;;;;;;;3.28;1.20;;;;;;;6.71;100.00;98004.88;4988743;28;20053;-67
2024/03/29 08:40:34;;;;;;;3.70;1.50;;;;;;;6.89;100.00;98037.81;5006718;28;20061;-67
2024/03/29 08:42:59;;;;;;;4.50;1.75;;;;;;;6.91;100.00;98041.06;4981069;28;20096;-65
2024/03/29 08:45:29;;;;;;;5.72;2.33;;;;;;;6.89;100.00;98035.22;4975787;28;20723;-64
2024/03/29 08:47:55;;;;;;;4.20;1.42;;;;;;;6.46;100.00;97969.22;4998786;28;20022;-66
2024/03/29 08:50:20;;;;;;;4.07;1.70;;;;;;;6.94;100.00;98038.22;4997254;28;20433;-68
2024/03/29 08:52:46;;;;;;;4.20;1.75;;;;;;;7.04;100.00;98040.78;5011935;28;20513;-65
2024/03/29 08:55:11;;;;;;;4.55;1.92;;;;;;;7.01;100.00;98038.47;4997210;28;20037;-67
2024/03/29 08:57:36;;;;;;;7.35;2.50;;;;;;;6.84;100.00;98004.59;4993055;28;20026;-68
2024/03/29 09:00:04;;;;;;;5.32;2.40;;;;;;;7.10;100.00;98050.56;5003170;28;20035;-64
2024/03/29 09:02:30;;;;;;;4.90;1.77;;;;;;;7.05;100.00;98051.00;4987653;28;20049;-66
2024/03/29 09:04:58;;;;;;;6.60;1.85;;;;;;;6.93;100.00;98039.16;4993819;28;20026;-64
2024/03/29 09:07:25;;;;;;;4.20;1.67;;;;;;;6.92;100.00;98030.59;4997340;28;20040;-65
2024/03/29 09:09:53;;;;;;;4.30;1.50;;;;;;;6.95;100.00;98050.16;5002311;28;20034;-69
2024/03/29 09:12:19;;;;;;;3.97;1.50;;;;;;;6.89;100.00;98045.56;4978742;28;20041;-64
2024/03/29 09:14:47;;;;;;;4.07;1.90;;;;;;;6.74;100.00;98022.69;5013900;28;20029;-62
2024/03/29 09:17:15;;;;;;;4.82;2.55;;;;;;;6.88;100.00;98056.81;5010035;28;20870;-63
2024/03/29 09:19:41;;;;;;;4.75;2.20;;;;;;;6.86;100.00;98063.91;5010614;28;20050;-62
2024/03/29 09:22:11;;;;;;;4.40;2.00;;;;;;;6.86;100.00;98043.22;4993420;28;21260;-65
2024/03/29 09:24:37;;;;;;;4.55;2.03;;;;;;;6.81;100.00;98058.31;4994533;28;20036;-65
2024/03/29 09:27:03;;;;;;;3.95;1.50;;;;;;;6.50;100.00;98011.94;4996440;28;20021;-63
2024/03/29 09:29:31;;;;;;;3.90;1.52;;;;;;;6.70;100.00;98060.09;5005714;28;20072;-61
2024/03/29 09:31:56;;;;;;;4.75;1.80;;;;;;;6.78;100.00;98080.09;5000503;28;20072;-65
2024/03/29 09:34:23;;;;;;;5.72;2.13;;;;;;;6.72;100.00;98085.81;4995253;28;20021;-65
2024/03/29 09:36:48;;;;;;;3.72;1.50;;;;;;;6.77;100.00;98075.84;5023743;28;20026;-64
2024/03/29 09:39:14;;;;;;;4.30;1.73;;;;;;;6.88;100.00;98080.09;4994391;28;20667;-62
2024/03/29 09:41:44;;;;;;;4.38;1.67;;;;;;;6.82;100.00;98075.47;5011635;28;20063;-60
2024/03/29 09:44:11;;;;;;;3.42;1.42;;;;;;;6.89;100.00;98081.72;4996409;28;20113;-60
2024/03/29 09:46:39;;;;;;;4.55;1.65;;;;;;;6.94;100.00;98077.00;5006583;28;20033;-61
2024/03/29 09:49:06;;;;;;;4.25;1.80;;;;;;;6.93;100.00;98072.75;5029698;28;20057;-60
2024/03/29 09:51:34;;;;;;;4.50;2.10;;;;;;;6.89;100.00;98081.72;5010905;28;20034;-63
2024/03/29 09:54:04;;;;;;;4.30;2.10;;;;;;;6.99;100.00;98071.41;4996581;28;20021;-61
2024/03/29 09:56:29;;;;;;;;;;;;;;;6.97;100.00;98062.97;5012864;28;20068;-60
2024/03/29 09:58:57;;;;;;;6.38;1.60;;;;;;;7.00;100.00;98068.69;4993925;28;20416;-61
2024/03/29 10:01:23;;;;;;;3.60;1.45;;;;;;;7.09;100.00;98061.88;5009585;28;20046;-61
2024/03/29 10:03:51;;;;;;;4.95;2.47;;;;;;;6.92;100.00;98030.59;5001863;28;20031;-62
2024/03/29 10:06:20;;;;;;;4.65;2.33;;;;;;;6.89;100.00;98024.88;4979514;28;20484;-61
2024/03/29 10:08:48;;;;;;;5.00;2.80;;;;;;;7.07;100.00;98056.84;4979248;28;20117;-61
2024/03/29 10:11:16;;;;;;;3.50;1.30;;;;;;;7.13;100.00;98060.66;4982409;28;20034;-63
2024/03/29 10:13:45;;;;;;;5.05;2.40;;;;;;;7.02;100.00;98040.91;5011109;28;20093;-62
2024/03/29 10:16:12;;;;;;;4.43;2.13;;;;;;;6.82;100.00;98009.09;4992054;28;20037;-61
2024/03/29 10:18:38;;;;;;;4.35;1.20;;;;;;;7.07;100.00;98064.59;4995304;28;20041;-65
2024/03/29 10:21:07;;;;;;;2.70;0.90;;;;;;;7.06;100.00;98063.00;5023979;28;20046;-66
2024/03/29 10:23:35;;;;;;;4.63;1.52;;;;;;;7.09;100.00;98061.88;5029312;28;20037;-62
2024/03/29 10:26:00;;;;;;;4.28;1.60;;;;;;;6.99;100.00;98056.72;4991542;28;20041;-61
2024/03/29 10:28:34;;;;;;;3.33;1.23;;;;;;;6.97;100.00;98050.84;4992404;28;20029;-64
2024/03/29 10:31:03;;;;;;;3.33;1.30;;;;;;;7.06;100.00;98067.31;5009362;28;20034;-65
2024/03/29 10:33:34;;;;;;;3.75;1.20;;;;;;;7.09;100.00;98085.16;4973920;28;20177;-62
2024/03/29 10:36:04;;;;;;;3.08;1.17;;;;;;;6.99;100.00;98077.41;4978382;28;20030;-64
2024/03/29 10:38:32;;;;;;;3.40;1.20;;;;;;;6.98;100.00;98049.91;4989441;28;20475;-64
2024/03/29 10:41:03;;;;;;;4.38;1.80;;;;;;;6.93;100.00;98055.47;4998200;28;20781;-61
2024/03/29 10:43:29;;;;;;;4.13;1.73;;;;;;;6.92;100.00;98076.31;4993065;28;20034;-61
2024/03/29 10:45:59;;;;;;;3.20;1.33;;;;;;;6.93;100.00;98058.06;4980631;28;20490;-62
2024/03/29 10:48:33;;;;;;;4.93;1.80;;;;;;;7.12;100.00;98085.69;5011085;28;20038;-62
2024/03/29 10:50:59;;;;;;;6.40;2.40;;;;;;;7.07;100.00;98062.03;4993576;28;20108;-64
2024/03/29 10:53:27;;;;;;;4.05;1.55;;;;;;;7.02;100.00;98045.28;4997981;28;20524;-60
2024/03/29 10:55:59;;;;;;;4.13;1.20;;;;;;;7.07;100.00;98061.22;5010266;28;20166;-60
2024/03/29 10:58:38;;;;;;;1.98;0.73;;;;;;;7.09;100.00;98065.28;4997804;28;20037;-60
2024/03/29 11:01:04;;;;;;;2.05;0.85;;;;;;;7.18;100.00;98094.69;4999150;28;20532;-63
2024/03/29 11:03:37;;;;;;;3.40;1.35;;;;;;;7.02;100.00;98074.53;5009667;28;20026;-63
2024/03/29 11:06:04;;;;;;;4.85;2.05;;;;;;;7.11;100.00;98065.97;4979948;28;20326;-62
2024/03/29 11:08:39;;;;;;;5.10;2.42;;;;;;;7.14;100.00;98054.53;4979698;28;20030;-65
2024/03/29 11:11:05;;;;;;;3.88;1.25;;;;;;;7.20;100.00;98064.34;4985015;28;20084;-61
2024/03/29 11:13:54;;;;;;;3.20;1.00;;;;;;;7.04;100.00;98027.88;4978711;28;20482;-63
2024/03/29 11:16:20;;;;;;;2.08;0.80;;;;;;;7.31;100.00;98071.13;5034401;28;20433;-63
2024/03/29 11:18:47;;;;;;;1.98;0.70;;;;;;;7.30;100.00;98082.41;5007070;28;20124;-66
2024/03/29 11:21:18;;;;;;;2.45;0.90;;;;;;;7.31;100.00;98068.53;4979452;28;20400;-63
2024/03/29 11:23:50;;;;;;;1.95;0.85;;;;;;;7.29;100.00;98058.34;5005265;28;20481;-61
2024/03/29 11:26:16;;;;;;;1.60;0.65;;;;;;;7.30;100.00;98064.31;4995696;28;20041;-64
2024/03/29 11:28:50;;;;;;;2.55;0.85;;;;;;;7.26;100.00;98068.94;4981170;28;20026;-64
2024/03/29 11:31:16;;;;;;;2.67;0.90;;;;;;;7.06;100.00;98025.97;4977849;28;21269;-64
2024/03/29 11:33:48;;;;;;;5.40;2.25;;;;;;;7.36;100.00;98058.63;4999546;28;20026;-64
2024/03/29 11:36:21;;;;;;;4.10;1.50;;;;;;;7.37;100.00;98049.06;4995554;28;20125;-64
2024/03/29 11:38:48;;;;;;;4.43;1.75;;;;;;;7.22;100.00;98007.31;4989988;28;20037;-64